createdAt,value
2014-11-14T19:33:12.443Z,100885
2014-11-14T19:39:12.941Z,100879
2014-11-14T19:44:13.375Z,100882
2014-11-14T19:49:13.823Z,100870
2014-11-14T19:54:14.257Z,100876
2014-11-14T20:00:14.755Z,100885
2014-11-14T20:06:15.253Z,100882
2014-11-14T20:12:15.751Z,100891
2014-11-14T20:18:16.235Z,100897
2014-11-14T20:26:16.847Z,100894
2014-11-14T20:32:17.329Z,100900
2014-11-14T20:37:17.763Z,100902
2014-11-14T20:44:18.309Z,100900
2014-11-14T20:50:18.808Z,100897
2014-11-14T20:57:19.355Z,100891
2014-11-14T21:02:19.789Z,100885
2014-11-14T21:08:20.287Z,100891
2014-11-14T21:14:20.785Z,100897
2014-11-14T21:21:21.316Z,100885
2014-11-14T21:27:21.814Z,100870
2014-11-14T21:34:22.362Z,100867
2014-11-14T21:41:23.533Z,100885
2014-11-14T21:47:23.658Z,100888
2014-11-14T21:55:31.519Z,100885
2014-11-14T22:01:32.002Z,100888
2014-11-14T22:06:32.451Z,100876
2014-11-14T22:14:33.048Z,100873
2014-11-14T22:19:33.481Z,100855
2014-11-14T22:25:33.980Z,100861
2014-11-14T22:30:34.427Z,100847
2014-11-14T22:36:34.911Z,100833
2014-11-14T22:43:35.458Z,100830
2014-11-14T22:48:35.907Z,100827
2014-11-14T22:55:36.440Z,100858
2014-11-14T23:00:36.888Z,100839
2014-11-14T23:07:37.435Z,100850
2014-11-14T23:14:37.983Z,100847
2014-11-14T23:19:38.556Z,100821
2014-11-14T23:25:38.977Z,100847
2014-11-14T23:31:39.462Z,100839
2014-11-14T23:36:39.911Z,100839
2014-11-14T23:41:40.360Z,100830
2014-11-14T23:47:40.842Z,100830
2014-11-14T23:53:41.325Z,100850
2014-11-14T23:58:41.774Z,100824
